Weather at Panola County Sharpe Field

Public forecast

Using degrees Fahrenheit for public forecast. Weather courtesy of forecast.io.

Closest aviation weather report (METAR) to Panola County Sharpe Field

Closest report is Harrison County Airport, 20.7 nm (38.3 km) N. Retrieved 2020/09/21 19:35 UTC (0 seconds ago):

KASL 211935Z AUTO 06005KT 5SM OVC007 18/17 A3010 RMK AO1 P0003 T01830172

Closest aviation forecast (TAF) to Panola County Sharpe Field

Closest forecast is East Texas Regional Airport, 24.4 nm (45.2 km) WNW. Retrieved 2020/09/21 18:24 UTC (1 hour ago):

TAF KGGG 211722Z 2118/2218 05005KT 2SM -RA SCT003 BKN010 OVC017 FM220000 06008KT 1/2SM FG OVC004 FM220900 08009KT 4SM BR OVC007 FM221200 08009KT 6SM -RA BR OVC007 FM221500 07009KT 2SM -RA BR OVC003 FM221600 08009KT 2SM -RA BR OVC007